X  Lukk Metar værinformasjon om luftfart     EDDH Hamburg Helmut Schmidt Airport
Temperatur
4°C Temperatur
2°C Duggpunkt
87% Luftfuktighet



Vind
9 MPT
14 KM/T
4 M/S
8 KNP



180°
S
Nåværende forhold

Delvis overskyet Delvis overskyet
Trykk 1002.03 (hPa) - 29.59 (inHg)
Sikt 6 (mil) - 9.7 (km)
Flyplass
Flyplass-kode EDDH

Plassering: Hamburg Helmut Schmidt Airport
Avstand: 11 (mi)

Metar:
EDDH 241950Z AUTO 18008KT 9999 FEW043 04/02 Q1002 TEMPO SHRA SCT014 BKN025CB

Tid: 24-02-2024 20:50 CET